Language: 


Des rapports , des résumés tant et plus, au choix de chacun....


Données statistiques de la station
Quotidien Rapport Février 3, 2017 Unités:  Métrique    Anglais   les deux
« Précédent Jour
Suivant Jour »
Quotidien Hebdomadaire Mensuel Annuel Actuel
  Haut: Bas: Moyen:
Température: 12.1 °C 7.1 °C 9.5 °C
Pt de rosée: 9.8 °C 4.7 °C 6.9 °C
Humidité: 97 % 63 % 85 %
Vitesse du vent: 24.5 km/h 0.0 km/h 11.6 km/h
Rafales: 38.9 km/h - -
Vent:- - South
Pression: 1001.9 hPa 995.1 hPa -
Précipitation: 0.0 mm    
Historical Graphs
 
 
Données statistiques pour Février 3, 2017
Heure Température Point de rosée Pression Vent Vitesse du vent Refales Humidité Pluie (taux horaire)
00:04 10.8 °C 9.7 °C 998.9 hPa South 7.9 km/h 15.8 km/h 93 % 0.0 mm
00:09 10.8 °C 9.7 °C 999.9 hPa SSW 10.1 km/h 15.8 km/h 93 % 0.0 mm
00:14 10.7 °C 9.6 °C 999.9 hPa SSW 9.3 km/h 13.7 km/h 93 % 0.0 mm
00:19 10.7 °C 9.8 °C 999.9 hPa South 13.7 km/h 13.7 km/h 94 % 0.0 mm
00:24 10.7 °C 9.8 °C 1000.9 hPa SSW 6.9 km/h 14.0 km/h 94 % 0.0 mm
00:29 10.7 °C 9.8 °C 1000.9 hPa SSE 10.5 km/h 14.0 km/h 94 % 0.0 mm
00:34 10.7 °C 9.8 °C 1000.9 hPa South 6.4 km/h 15.8 km/h 94 % 0.0 mm
00:39 10.7 °C 9.8 °C 999.9 hPa South 11.9 km/h 15.8 km/h 94 % 0.0 mm
00:44 10.7 °C 9.8 °C 999.9 hPa SSW 9.7 km/h 14.0 km/h 94 % 0.0 mm
00:49 10.7 °C 9.8 °C 999.9 hPa SSW 6.1 km/h 14.0 km/h 94 % 0.0 mm
00:54 10.7 °C 9.8 °C 1000.9 hPa SW 9.3 km/h 13.7 km/h 94 % 0.0 mm
00:59 10.7 °C 9.8 °C 1000.9 hPa South 7.9 km/h 13.7 km/h 94 % 0.0 mm
01:04 10.6 °C 9.7 °C 1000.9 hPa South 10.5 km/h 16.3 km/h 94 % 0.0 mm
01:09 10.6 °C 9.7 °C 1000.9 hPa SSE 6.1 km/h 16.3 km/h 94 % 0.0 mm
01:14 10.6 °C 9.7 °C 1000.9 hPa SSW 13.0 km/h 19.5 km/h 94 % 0.0 mm
01:19 10.6 °C 9.7 °C 1000.9 hPa SSW 10.5 km/h 20.6 km/h 94 % 0.0 mm
01:24 10.6 °C 9.7 °C 1000.9 hPa SSW 6.9 km/h 20.6 km/h 94 % 0.0 mm
01:29 10.5 °C 9.6 °C 1000.9 hPa South 6.9 km/h 16.6 km/h 94 % 0.0 mm
01:34 10.5 °C 9.6 °C 1000.9 hPa SSW 8.7 km/h 16.6 km/h 94 % 0.0 mm
01:39 10.4 °C 9.4 °C 999.9 hPa South 1.4 km/h 11.6 km/h 94 % 0.0 mm
01:44 10.3 °C 9.4 °C 999.9 hPa South 5.8 km/h 11.6 km/h 94 % 0.0 mm
01:49 10.3 °C 9.4 °C 999.9 hPa SSW 10.1 km/h 15.1 km/h 94 % 0.0 mm
01:54 10.2 °C 9.3 °C 999.9 hPa SW 5.8 km/h 15.1 km/h 94 % 0.0 mm
01:59 10.1 °C 9.2 °C 999.9 hPa SSW 5.5 km/h 13.0 km/h 94 % 0.0 mm
02:04 10.1 °C 9.2 °C 999.9 hPa SSW 9.7 km/h 9.7 km/h 94 % 0.0 mm
02:09 9.9 °C 9.0 °C 1000.9 hPa SW 7.6 km/h 14.0 km/h 94 % 0.0 mm
02:14 9.9 °C 9.0 °C 1000.9 hPa SSW 6.4 km/h 14.0 km/h 94 % 0.0 mm
02:19 9.7 °C 8.8 °C 1000.9 hPa SSW 12.6 km/h 12.6 km/h 94 % 0.0 mm
02:24 9.6 °C 8.7 °C 999.9 hPa SSW 4.0 km/h 12.6 km/h 94 % 0.0 mm
02:29 9.6 °C 8.7 °C 999.9 hPa SSW 7.6 km/h 12.2 km/h 94 % 0.0 mm
02:34 9.4 °C 8.5 °C 999.9 hPa SSW 11.9 km/h 13.7 km/h 94 % 0.0 mm
02:39 9.3 °C 8.4 °C 1000.9 hPa SW 8.7 km/h 14.0 km/h 94 % 0.0 mm
02:44 9.3 °C 8.4 °C 1000.9 hPa SSW 7.9 km/h 14.0 km/h 94 % 0.0 mm
02:49 9.3 °C 8.4 °C 1000.9 hPa SSW 9.3 km/h 13.7 km/h 94 % 0.0 mm
02:54 9.2 °C 8.3 °C 999.9 hPa SW 11.9 km/h 14.0 km/h 94 % 0.0 mm
02:59 9.2 °C 8.3 °C 999.9 hPa SSW 1.4 km/h 14.0 km/h 94 % 0.0 mm
03:04 9.1 °C 8.2 °C 999.9 hPa South 6.1 km/h 11.9 km/h 94 % 0.0 mm
03:09 8.9 °C 7.8 °C 1000.9 hPa SSW 5.8 km/h 12.6 km/h 93 % 0.0 mm
03:14 8.8 °C 7.7 °C 1000.9 hPa Calm   12.6 km/h 93 % 0.0 mm
03:19 8.7 °C 7.8 °C 1000.9 hPa SSW 5.0 km/h 6.9 km/h 94 % 0.0 mm
03:24 8.6 °C 7.7 °C 1000.9 hPa SSW 5.8 km/h 10.5 km/h 94 % 0.0 mm
03:29 8.6 °C 7.7 °C 1000.9 hPa SSW 9.3 km/h 14.0 km/h 94 % 0.0 mm
03:34 8.6 °C 7.7 °C 1000.9 hPa SSW 9.0 km/h 14.0 km/h 94 % 0.0 mm
03:39 8.6 °C 7.7 °C 1000.9 hPa SSW 10.1 km/h 12.6 km/h 94 % 0.0 mm
03:44 8.6 °C 7.7 °C 1000.9 hPa SW 8.7 km/h 12.6 km/h 94 % 0.0 mm
03:49 8.6 °C 7.9 °C 1000.9 hPa South 5.0 km/h 11.9 km/h 95 % 0.0 mm
03:54 8.6 °C 7.9 °C 1000.9 hPa South 8.7 km/h 12.6 km/h 95 % 0.0 mm
03:59 8.6 °C 7.9 °C 1000.9 hPa South 9.0 km/h 13.0 km/h 95 % 0.0 mm
04:04 8.7 °C 7.9 °C 1000.9 hPa SSW 11.6 km/h 13.0 km/h 95 % 0.0 mm
04:09 8.7 °C 7.9 °C 999.9 hPa SSW 10.1 km/h 13.0 km/h 95 % 0.0 mm
04:14 8.7 °C 7.9 °C 999.9 hPa SW 13.7 km/h 13.7 km/h 95 % 0.0 mm
04:19 8.7 °C 7.9 °C 999.9 hPa SSW 9.0 km/h 13.7 km/h 95 % 0.0 mm
04:24 8.7 °C 7.9 °C 1000.9 hPa SW 9.3 km/h 14.0 km/h 95 % 0.0 mm
04:29 8.7 °C 7.9 °C 1000.9 hPa South 7.9 km/h 14.0 km/h 95 % 0.0 mm
04:34 8.6 °C 7.9 °C 1000.9 hPa SW 9.7 km/h 12.6 km/h 95 % 0.0 mm
04:39 8.6 °C 7.9 °C 1000.9 hPa SSW 11.9 km/h 13.0 km/h 95 % 0.0 mm
04:44 8.6 °C 7.9 °C 1000.9 hPa South 10.5 km/h 13.0 km/h 95 % 0.0 mm
04:49 8.6 °C 7.9 °C 1000.9 hPa SSW 5.8 km/h 11.9 km/h 95 % 0.0 mm
04:54 8.6 °C 7.9 °C 1000.9 hPa SSW 11.9 km/h 12.2 km/h 95 % 0.0 mm
04:59 8.6 °C 7.9 °C 1000.9 hPa SSW 10.5 km/h 12.6 km/h 95 % 0.0 mm
05:04 8.5 °C 7.8 °C 1000.9 hPa South 12.6 km/h 15.8 km/h 95 % 0.0 mm
05:09 8.5 °C 7.8 °C 1000.9 hPa SSW 9.7 km/h 15.8 km/h 95 % 0.0 mm
05:14 8.5 °C 7.8 °C 1000.9 hPa South 8.7 km/h 11.9 km/h 95 % 0.0 mm
05:19 8.5 °C 7.8 °C 1000.9 hPa South 6.4 km/h 11.9 km/h 95 % 0.0 mm
05:24 8.5 °C 7.8 °C 1000.9 hPa SSW 6.4 km/h 12.6 km/h 95 % 0.0 mm
05:29 8.5 °C 7.8 °C 1000.9 hPa SSW 5.0 km/h 12.6 km/h 95 % 0.0 mm
05:34 8.4 °C 7.7 °C 1000.9 hPa SSW 5.5 km/h 11.9 km/h 95 % 0.0 mm
05:39 8.4 °C 7.7 °C 1000.9 hPa SW 9.3 km/h 13.0 km/h 95 % 0.0 mm
05:44 8.4 °C 7.7 °C 1000.9 hPa South 6.9 km/h 14.0 km/h 95 % 0.0 mm
05:49 8.4 °C 7.7 °C 1000.9 hPa SSW 6.9 km/h 14.0 km/h 95 % 0.0 mm
05:54 8.4 °C 7.7 °C 1000.9 hPa SSW 9.7 km/h 16.6 km/h 95 % 0.0 mm
05:59 8.4 °C 7.7 °C 1000.9 hPa South 9.7 km/h 16.6 km/h 95 % 0.0 mm
06:04 8.4 °C 7.7 °C 1000.9 hPa SW 7.9 km/h 13.7 km/h 95 % 0.0 mm
06:09 8.4 °C 7.7 °C 1000.9 hPa SW 11.9 km/h 13.7 km/h 95 % 0.0 mm
06:14 8.4 °C 7.7 °C 1000.9 hPa South 11.6 km/h 13.0 km/h 95 % 0.0 mm
06:19 8.4 °C 7.7 °C 1000.9 hPa SW 6.9 km/h 14.8 km/h 95 % 0.0 mm
06:24 8.3 °C 7.6 °C 1000.9 hPa SSW 6.4 km/h 14.8 km/h 95 % 0.0 mm
06:29 8.3 °C 7.6 °C 1000.9 hPa South 11.6 km/h 14.0 km/h 95 % 0.0 mm
06:34 8.3 °C 7.6 °C 1000.9 hPa SW 9.7 km/h 14.0 km/h 95 % 0.0 mm
06:39 8.2 °C 7.5 °C 1000.9 hPa SSW 9.0 km/h 13.7 km/h 95 % 0.0 mm
06:44 8.2 °C 7.5 °C 1000.9 hPa SSW 9.0 km/h 10.5 km/h 95 % 0.0 mm
06:49 8.1 °C 7.3 °C 1000.9 hPa South 9.7 km/h 9.7 km/h 95 % 0.0 mm
06:54 8.1 °C 7.3 °C 1000.9 hPa SSW 5.0 km/h 11.9 km/h 95 % 0.0 mm
06:59 8.1 °C 7.3 °C 1000.9 hPa SSW 6.4 km/h 11.9 km/h 95 % 0.0 mm
07:04 7.9 °C 7.2 °C 1000.9 hPa SSW 5.0 km/h 11.9 km/h 95 % 0.0 mm
07:09 7.9 °C 7.2 °C 1000.9 hPa SW 6.1 km/h 11.9 km/h 95 % 0.0 mm
07:14 7.8 °C 7.1 °C 1000.9 hPa SSW 4.3 km/h 8.7 km/h 95 % 0.0 mm
07:19 7.8 °C 7.1 °C 1000.9 hPa SSW 6.4 km/h 9.0 km/h 95 % 0.0 mm
07:24 7.8 °C 7.1 °C 1000.9 hPa SSW 10.5 km/h 10.5 km/h 95 % 0.0 mm
07:29 7.8 °C 7.2 °C 1000.9 hPa SSW 5.5 km/h 11.6 km/h 96 % 0.0 mm
07:34 7.8 °C 7.2 °C 1000.9 hPa South 10.1 km/h 12.6 km/h 96 % 0.0 mm
07:39 7.8 °C 7.2 °C 1000.9 hPa South 9.7 km/h 13.0 km/h 96 % 0.0 mm
07:44 7.8 °C 7.2 °C 1000.9 hPa SSW 12.6 km/h 13.0 km/h 96 % 0.0 mm
07:49 7.7 °C 7.2 °C 1000.9 hPa SSW 8.7 km/h 13.0 km/h 96 % 0.0 mm
07:54 7.7 °C 7.2 °C 999.9 hPa SSW 10.5 km/h 13.0 km/h 96 % 0.0 mm
07:59 7.7 °C 7.1 °C 999.9 hPa SSW 7.9 km/h 11.1 km/h 96 % 0.0 mm
08:04 7.7 °C 7.1 °C 999.9 hPa South 9.0 km/h 10.8 km/h 96 % 0.0 mm
08:09 7.7 °C 7.1 °C 1000.9 hPa South 9.3 km/h 11.9 km/h 96 % 0.0 mm
08:14 7.6 °C 6.9 °C 1000.9 hPa South 6.1 km/h 12.2 km/h 96 % 0.0 mm
08:19 7.6 °C 6.9 °C 1000.9 hPa SSW 7.9 km/h 12.2 km/h 96 % 0.0 mm
08:24 7.6 °C 6.9 °C 1000.9 hPa SSW 9.7 km/h 14.3 km/h 96 % 0.0 mm
08:29 7.4 °C 6.8 °C 1000.9 hPa SSW 9.7 km/h 14.3 km/h 96 % 0.0 mm
08:34 7.4 °C 6.8 °C 1000.9 hPa South 9.3 km/h 13.7 km/h 96 % 0.0 mm
08:39 7.4 °C 7.0 °C 1000.9 hPa SSW 6.9 km/h 12.2 km/h 97 % 0.0 mm
08:44 7.3 °C 6.9 °C 1000.9 hPa South 10.1 km/h 11.9 km/h 97 % 0.0 mm
08:49 7.4 °C 7.0 °C 1000.9 hPa SSW 9.0 km/h 12.6 km/h 97 % 0.0 mm
08:54 7.6 °C 7.1 °C 1001.9 hPa SSW 6.9 km/h 12.6 km/h 97 % 0.0 mm
08:59 7.6 °C 7.1 °C 1001.9 hPa SSW 7.9 km/h 16.3 km/h 97 % 0.0 mm
09:04 7.7 °C 7.2 °C 1001.9 hPa South 9.7 km/h 16.3 km/h 97 % 0.0 mm
09:09 7.7 °C 7.3 °C 1000.9 hPa South 6.4 km/h 16.3 km/h 97 % 0.0 mm
09:14 7.8 °C 7.4 °C 1000.9 hPa SSW 9.7 km/h 13.7 km/h 97 % 0.0 mm
09:19 7.9 °C 7.5 °C 1000.9 hPa South 8.7 km/h 13.0 km/h 97 % 0.0 mm
09:24 8.1 °C 7.4 °C 1000.9 hPa South 8.7 km/h 13.0 km/h 96 % 0.0 mm
09:29 8.2 °C 7.8 °C 1000.9 hPa South 9.0 km/h 12.6 km/h 97 % 0.0 mm
09:34 8.4 °C 8.0 °C 1000.9 hPa South 15.8 km/h 15.8 km/h 97 % 0.0 mm
09:39 8.6 °C 8.0 °C 1000.9 hPa SSW 10.1 km/h 15.8 km/h 96 % 0.0 mm
09:44 8.8 °C 8.2 °C 1000.9 hPa South 5.8 km/h 15.4 km/h 96 % 0.0 mm
09:49 8.9 °C 8.3 °C 1000.9 hPa SSW 12.2 km/h 13.0 km/h 96 % 0.0 mm
09:54 9.0 °C 8.4 °C 1001.9 hPa SSW 7.9 km/h 13.0 km/h 96 % 0.0 mm
09:59 9.1 °C 8.3 °C 1001.9 hPa SSW 4.7 km/h 16.6 km/h 95 % 0.0 mm
10:04 9.2 °C 8.4 °C 1001.9 hPa South 10.5 km/h 16.6 km/h 95 % 0.0 mm
10:09 9.3 °C 8.4 °C 1000.9 hPa SSW 5.5 km/h 17.2 km/h 94 % 0.0 mm
10:14 9.4 °C 8.3 °C 1000.9 hPa SSW 13.7 km/h 17.2 km/h 93 % 0.0 mm
10:19 9.4 °C 8.2 °C 1000.9 hPa SSW 17.2 km/h 17.7 km/h 92 % 0.0 mm
10:24 9.5 °C 8.1 °C 1000.9 hPa SSE 8.7 km/h 18.3 km/h 91 % 0.0 mm
10:29 9.7 °C 8.2 °C 1000.9 hPa SSW 12.6 km/h 20.6 km/h 90 % 0.0 mm
10:34 9.8 °C 8.1 °C 1000.9 hPa SSW 7.9 km/h 20.6 km/h 89 % 0.0 mm
10:39 9.9 °C 8.0 °C 1000.9 hPa SSW 10.1 km/h 23.3 km/h 88 % 0.0 mm
10:44 10.0 °C 7.8 °C 1000.9 hPa SSW 17.2 km/h 23.3 km/h 86 % 0.0 mm
10:49 10.0 °C 7.6 °C 1000.9 hPa SSW 18.3 km/h 20.1 km/h 85 % 0.0 mm
10:54 10.2 °C 7.6 °C 1000.9 hPa SW 15.8 km/h 24.5 km/h 84 % 0.0 mm
10:59 10.3 °C 7.7 °C 1000.9 hPa SSW 12.2 km/h 24.5 km/h 84 % 0.0 mm
11:04 10.4 °C 7.6 °C 1000.9 hPa SSW 10.1 km/h 21.2 km/h 83 % 0.0 mm
11:09 10.5 °C 7.7 °C 1000.9 hPa SSW 10.1 km/h 21.2 km/h 83 % 0.0 mm
11:14 10.6 °C 7.6 °C 1000.9 hPa SSW 19.5 km/h 23.3 km/h 82 % 0.0 mm
11:19 10.6 °C 7.6 °C 1000.9 hPa SSW 9.7 km/h 23.3 km/h 82 % 0.0 mm
11:24 10.7 °C 7.7 °C 1000.9 hPa SW 20.9 km/h 23.8 km/h 82 % 0.0 mm
11:29 10.7 °C 7.6 °C 1000.9 hPa WSW 11.9 km/h 23.8 km/h 81 % 0.0 mm
11:34 10.9 °C 7.7 °C 1000.9 hPa South 10.5 km/h 23.8 km/h 81 % 0.0 mm
11:39 10.6 °C 7.3 °C 1001.9 hPa South 18.3 km/h 25.6 km/h 80 % 0.0 mm
11:44 10.7 °C 7.4 °C 1001.9 hPa SSW 6.4 km/h 25.6 km/h 80 % 0.0 mm
11:49 10.7 °C 6.8 °C 1001.9 hPa South 11.6 km/h 28.0 km/h 77 % 0.0 mm
11:54 10.8 °C 7.1 °C 1001.9 hPa South 11.9 km/h 28.0 km/h 78 % 0.0 mm
11:59 11.0 °C 7.1 °C 1001.9 hPa SSW 16.3 km/h 24.8 km/h 77 % 0.0 mm
12:04 11.1 °C 7.2 °C 1001.9 hPa SSW 12.6 km/h 20.1 km/h 77 % 0.0 mm
12:09 11.3 °C 7.4 °C 1001.9 hPa WSW 23.0 km/h 23.0 km/h 77 % 0.0 mm
12:14 11.2 °C 7.1 °C 1001.9 hPa SSW 20.1 km/h 23.0 km/h 76 % 0.0 mm
12:19 11.3 °C 7.0 °C 1001.9 hPa SSW 15.4 km/h 33.5 km/h 75 % 0.0 mm
12:24 11.4 °C 6.9 °C 1000.9 hPa SSW 11.9 km/h 33.5 km/h 74 % 0.0 mm
12:29 11.0 °C 6.7 °C 1000.9 hPa South 7.9 km/h 22.4 km/h 75 % 0.0 mm
12:34 10.8 °C 6.5 °C 1000.9 hPa SSW 14.0 km/h 19.8 km/h 75 % 0.0 mm
12:39 11.1 °C 6.6 °C 1000.9 hPa SSW 19.5 km/h 26.7 km/h 74 % 0.0 mm
12:44 11.2 °C 6.5 °C 1000.9 hPa SSW 12.6 km/h 27.7 km/h 73 % 0.0 mm
12:49 11.4 °C 6.7 °C 1000.9 hPa SW 17.2 km/h 27.7 km/h 73 % 0.0 mm
12:54 11.4 °C 6.7 °C 1000.9 hPa South 19.8 km/h 30.6 km/h 73 % 0.0 mm
12:59 11.1 °C 6.0 °C 1000.9 hPa SSW 19.1 km/h 30.6 km/h 71 % 0.0 mm
13:04 11.3 °C 6.2 °C 1000.9 hPa South 21.2 km/h 28.0 km/h 71 % 0.0 mm
13:09 11.4 °C 6.5 °C 999.9 hPa SSW 20.1 km/h 27.0 km/h 72 % 0.0 mm
13:14 11.4 °C 6.5 °C 999.9 hPa SSW 12.2 km/h 24.8 km/h 72 % 0.0 mm
13:19 11.3 °C 6.2 °C 999.9 hPa South 20.1 km/h 28.0 km/h 71 % 0.0 mm
13:24 11.2 °C 6.1 °C 1001.9 hPa South 14.3 km/h 28.0 km/h 71 % 0.0 mm
13:29 11.3 °C 6.4 °C 1001.9 hPa South 15.8 km/h 27.4 km/h 72 % 0.0 mm
13:34 11.2 °C 5.9 °C 1001.9 hPa SSW 16.9 km/h 27.4 km/h 70 % 0.0 mm
13:39 11.2 °C 6.1 °C 1000.9 hPa SSE 20.6 km/h 33.1 km/h 71 % 0.0 mm
13:44 11.3 °C 6.2 °C 1000.9 hPa SSE 22.4 km/h 33.1 km/h 71 % 0.0 mm
13:49 11.4 °C 6.6 °C 1000.9 hPa SSE 21.9 km/h 24.8 km/h 72 % 0.0 mm
13:54 11.7 °C 6.8 °C 999.9 hPa South 9.3 km/h 25.9 km/h 72 % 0.0 mm
13:59 11.6 °C 6.5 °C 999.9 hPa SSE 13.7 km/h 27.4 km/h 71 % 0.0 mm
14:04 11.4 °C 6.2 °C 999.9 hPa South 16.9 km/h 27.4 km/h 70 % 0.0 mm
14:09 11.6 °C 6.5 °C 998.9 hPa South 10.5 km/h 23.8 km/h 71 % 0.0 mm
14:14 11.8 °C 6.8 °C 998.9 hPa SSE 15.8 km/h 23.8 km/h 71 % 0.0 mm
14:19 11.8 °C 6.6 °C 998.9 hPa South 12.2 km/h 22.4 km/h 70 % 0.0 mm
14:24 11.8 °C 6.3 °C 998.9 hPa South 17.7 km/h 28.0 km/h 69 % 0.0 mm
14:29 11.8 °C 6.3 °C 998.9 hPa WSW 17.2 km/h 28.0 km/h 69 % 0.0 mm
14:34 11.8 °C 5.9 °C 998.9 hPa SSE 13.0 km/h 23.8 km/h 67 % 0.0 mm
14:39 11.9 °C 6.2 °C 998.9 hPa South 10.1 km/h 26.7 km/h 68 % 0.0 mm
14:44 12.1 °C 5.9 °C 998.9 hPa SSW 9.3 km/h 26.7 km/h 66 % 0.0 mm
14:49 11.9 °C 5.6 °C 998.9 hPa SSE 17.2 km/h 23.8 km/h 65 % 0.0 mm
14:54 11.9 °C 5.6 °C 997.9 hPa SSE 12.6 km/h 28.8 km/h 65 % 0.0 mm
14:59 11.8 °C 5.3 °C 997.9 hPa South 9.3 km/h 28.8 km/h 64 % 0.0 mm
15:04 11.7 °C 5.1 °C 997.9 hPa South 14.3 km/h 27.7 km/h 64 % 0.0 mm
15:09 11.8 °C 5.2 °C 997.9 hPa SSE 9.0 km/h 27.7 km/h 64 % 0.0 mm
15:14 11.8 °C 5.2 °C 997.9 hPa SSE 14.0 km/h 24.8 km/h 64 % 0.0 mm
15:19 11.9 °C 5.6 °C 997.9 hPa SE 11.9 km/h 24.8 km/h 65 % 0.0 mm
15:24 11.8 °C 5.3 °C 997.9 hPa SE 17.2 km/h 24.8 km/h 64 % 0.0 mm
15:29 11.7 °C 5.1 °C 997.9 hPa SSE 16.6 km/h 24.8 km/h 64 % 0.0 mm
15:34 11.8 °C 4.9 °C 997.9 hPa SSE 16.3 km/h 28.0 km/h 63 % 0.0 mm
15:39 11.8 °C 5.2 °C 997.9 hPa SSE 16.9 km/h 28.0 km/h 64 % 0.0 mm
15:40 11.8 °C 5.2 °C 997.9 hPa SSE 13.0 km/h 28.0 km/h 64 % 0.0 mm
15:45 11.7 °C 5.3 °C 997.9 hPa SSE 9.3 km/h 28.0 km/h 65 % 0.0 mm
15:50 11.7 °C 5.1 °C 997.9 hPa SSE 14.0 km/h 28.0 km/h 64 % 0.0 mm
15:55 11.7 °C 5.3 °C 997.9 hPa South 14.0 km/h 23.3 km/h 65 % 0.0 mm
16:00 11.7 °C 5.3 °C 997.9 hPa SE 10.1 km/h 23.3 km/h 65 % 0.0 mm
16:05 11.4 °C 4.7 °C 997.9 hPa South 16.3 km/h 21.9 km/h 63 % 0.0 mm
16:10 11.4 °C 4.7 °C 997.9 hPa South 10.1 km/h 28.0 km/h 63 % 0.0 mm
16:15 11.4 °C 4.8 °C 997.9 hPa South 12.6 km/h 28.0 km/h 64 % 0.0 mm
16:20 11.3 °C 4.9 °C 997.9 hPa SSE 11.6 km/h 22.4 km/h 65 % 0.0 mm
16:25 11.1 °C 4.7 °C 997.9 hPa SE 9.3 km/h 20.9 km/h 65 % 0.0 mm
16:30 10.9 °C 4.8 °C 997.9 hPa SSE 10.1 km/h 20.9 km/h 66 % 0.0 mm
16:35 10.6 °C 4.7 °C 997.9 hPa South 12.6 km/h 25.3 km/h 67 % 0.0 mm
16:40 10.5 °C 4.8 °C 996.8 hPa SE 14.0 km/h 25.3 km/h 68 % 0.0 mm
16:45 10.4 °C 4.7 °C 996.8 hPa SE 24.5 km/h 25.3 km/h 68 % 0.0 mm
16:50 10.3 °C 4.8 °C 996.8 hPa SE 15.1 km/h 24.5 km/h 69 % 0.0 mm
16:55 10.2 °C 4.8 °C 996.8 hPa SE 9.0 km/h 23.0 km/h 69 % 0.0 mm
17:00 10.2 °C 4.8 °C 996.8 hPa SSE 16.9 km/h 21.6 km/h 69 % 0.0 mm
17:05 10.1 °C 4.9 °C 996.8 hPa SE 9.7 km/h 24.8 km/h 70 % 0.0 mm
17:10 10.1 °C 4.9 °C 996.2 hPa SSE 11.9 km/h 28.5 km/h 70 % 0.0 mm
17:15 10.1 °C 5.1 °C 996.2 hPa SSE 20.6 km/h 28.5 km/h 71 % 0.0 mm
17:20 10.1 °C 5.1 °C 996.2 hPa SE 17.7 km/h 28.0 km/h 71 % 0.0 mm
17:25 10.1 °C 5.1 °C 996.8 hPa SE 17.7 km/h 27.0 km/h 71 % 0.0 mm
17:30 10.0 °C 5.0 °C 996.8 hPa SE 17.2 km/h 23.3 km/h 71 % 0.0 mm
17:35 10.0 °C 5.0 °C 996.8 hPa SSE 17.7 km/h 27.7 km/h 71 % 0.0 mm
17:40 10.0 °C 5.2 °C 996.8 hPa SSE 15.8 km/h 27.7 km/h 72 % 0.0 mm
17:45 10.0 °C 5.2 °C 996.8 hPa SE 19.8 km/h 26.2 km/h 72 % 0.0 mm
17:50 10.0 °C 5.2 °C 996.8 hPa SSE 23.8 km/h 38.9 km/h 72 % 0.0 mm
17:55 10.0 °C 5.2 °C 996.8 hPa SSE 15.4 km/h 38.9 km/h 72 % 0.0 mm
18:00 10.0 °C 5.2 °C 996.8 hPa SSE 23.8 km/h 28.0 km/h 72 % 0.0 mm
18:05 9.9 °C 5.1 °C 996.8 hPa SSE 13.7 km/h 32.0 km/h 72 % 0.0 mm
18:10 9.9 °C 5.3 °C 996.8 hPa SSE 11.9 km/h 32.0 km/h 73 % 0.0 mm
18:15 9.9 °C 5.3 °C 996.8 hPa SSE 17.7 km/h 31.4 km/h 73 % 0.0 mm
18:20 9.8 °C 5.2 °C 996.8 hPa SE 17.2 km/h 24.8 km/h 73 % 0.0 mm
18:25 9.9 °C 5.3 °C 996.8 hPa SSE 19.1 km/h 26.2 km/h 73 % 0.0 mm
18:30 9.9 °C 5.3 °C 996.8 hPa South 11.9 km/h 27.4 km/h 73 % 0.0 mm
18:35 9.9 °C 5.5 °C 996.8 hPa SSE 20.9 km/h 31.7 km/h 74 % 0.0 mm
18:40 9.9 °C 5.5 °C 996.8 hPa SSE 17.2 km/h 34.6 km/h 74 % 0.0 mm
18:45 9.9 °C 5.3 °C 996.8 hPa South 17.2 km/h 35.6 km/h 73 % 0.0 mm
18:50 9.9 °C 5.5 °C 996.8 hPa South 16.9 km/h 35.6 km/h 74 % 0.0 mm
18:55 9.8 °C 5.4 °C 996.8 hPa South 18.0 km/h 32.8 km/h 74 % 0.0 mm
19:00 9.7 °C 5.5 °C 996.8 hPa SSW 11.9 km/h 22.4 km/h 75 % 0.0 mm
19:05 9.5 °C 5.5 °C 996.8 hPa South 10.1 km/h 21.9 km/h 76 % 0.0 mm
19:10 9.3 °C 5.5 °C 996.8 hPa South 12.6 km/h 21.9 km/h 77 % 0.0 mm
19:15 9.2 °C 5.6 °C 996.8 hPa SSW 19.5 km/h 21.2 km/h 78 % 0.0 mm
19:20 9.1 °C 5.5 °C 996.8 hPa South 16.9 km/h 20.9 km/h 78 % 0.0 mm
19:25 9.1 °C 5.5 °C 996.8 hPa SSW 16.9 km/h 25.3 km/h 78 % 0.0 mm
19:30 9.1 °C 5.7 °C 996.8 hPa SSE 14.0 km/h 25.3 km/h 79 % 0.0 mm
19:35 9.0 °C 5.6 °C 996.8 hPa South 10.1 km/h 23.3 km/h 79 % 0.0 mm
19:40 9.0 °C 5.6 °C 996.8 hPa South 13.7 km/h 20.1 km/h 79 % 0.0 mm
19:45 9.0 °C 5.6 °C 996.8 hPa SSE 11.6 km/h 21.2 km/h 79 % 0.0 mm
19:50 9.0 °C 5.6 °C 996.8 hPa South 9.3 km/h 21.6 km/h 79 % 0.0 mm
19:55 9.0 °C 5.6 °C 996.2 hPa South 13.7 km/h 21.6 km/h 79 % 0.0 mm
20:00 9.0 °C 5.4 °C 996.2 hPa South 20.1 km/h 20.1 km/h 78 % 0.0 mm
20:05 9.0 °C 5.4 °C 996.2 hPa SSE 16.3 km/h 20.9 km/h 78 % 0.0 mm
20:10 9.1 °C 5.5 °C 996.8 hPa South 13.0 km/h 20.9 km/h 78 % 0.0 mm
20:15 9.1 °C 5.5 °C 996.8 hPa SSE 9.3 km/h 20.9 km/h 78 % 0.0 mm
20:20 9.1 °C 5.5 °C 996.8 hPa SSE 17.7 km/h 21.2 km/h 78 % 0.0 mm
20:26 9.1 °C 5.3 °C 996.2 hPa South 15.1 km/h 24.8 km/h 77 % 0.0 mm
20:31 9.1 °C 5.3 °C 996.2 hPa South 20.1 km/h 24.8 km/h 77 % 0.0 mm
20:36 9.0 °C 5.2 °C 996.2 hPa South 14.0 km/h 23.8 km/h 77 % 0.0 mm
20:41 9.0 °C 5.4 °C 995.1 hPa South 12.6 km/h 23.3 km/h 78 % 0.0 mm
20:46 8.9 °C 5.3 °C 995.1 hPa SE 9.7 km/h 20.6 km/h 78 % 0.0 mm
20:51 8.8 °C 5.2 °C 995.1 hPa South 20.1 km/h 20.9 km/h 78 % 0.0 mm
20:56 8.8 °C 5.4 °C 996.2 hPa South 9.3 km/h 20.9 km/h 79 % 0.0 mm
21:01 8.8 °C 5.6 °C 996.2 hPa SSW 14.0 km/h 20.9 km/h 80 % 0.0 mm
21:06 8.8 °C 5.6 °C 996.2 hPa South 16.3 km/h 16.3 km/h 80 % 0.0 mm
21:11 8.8 °C 5.6 °C 996.2 hPa SSE 10.1 km/h 20.6 km/h 80 % 0.0 mm
21:16 8.8 °C 5.4 °C 996.2 hPa South 9.0 km/h 24.8 km/h 79 % 0.0 mm
21:21 8.8 °C 5.6 °C 996.2 hPa South 10.1 km/h 24.8 km/h 80 % 0.0 mm
21:26 8.7 °C 5.4 °C 996.2 hPa SSE 10.1 km/h 16.3 km/h 80 % 0.0 mm
21:31 8.7 °C 5.4 °C 996.2 hPa South 6.1 km/h 16.3 km/h 80 % 0.0 mm
21:36 8.7 °C 5.4 °C 996.2 hPa South 9.3 km/h 17.2 km/h 80 % 0.0 mm
21:41 8.7 °C 5.7 °C 996.2 hPa South 13.7 km/h 20.9 km/h 81 % 0.0 mm
21:46 8.6 °C 5.6 °C 996.2 hPa South 8.7 km/h 20.9 km/h 81 % 0.0 mm
21:51 8.5 °C 5.6 °C 996.2 hPa SSW 14.0 km/h 16.6 km/h 82 % 0.0 mm
21:56 8.4 °C 5.7 °C 996.2 hPa South 9.7 km/h 16.9 km/h 83 % 0.0 mm
22:01 8.3 °C 5.8 °C 996.2 hPa South 9.3 km/h 16.9 km/h 84 % 0.0 mm
22:06 8.2 °C 5.8 °C 996.2 hPa South 10.5 km/h 16.9 km/h 85 % 0.0 mm
22:11 8.1 °C 5.9 °C 996.2 hPa SSW 12.2 km/h 15.4 km/h 86 % 0.0 mm
22:16 8.1 °C 6.2 °C 996.2 hPa SSW 11.1 km/h 15.8 km/h 88 % 0.0 mm
22:21 7.9 °C 6.2 °C 996.2 hPa South 9.7 km/h 15.8 km/h 89 % 0.0 mm
22:26 7.8 °C 6.4 °C 996.2 hPa SSW 12.2 km/h 20.9 km/h 91 % 0.0 mm
22:31 7.7 °C 6.5 °C 996.2 hPa SSW 9.0 km/h 20.9 km/h 92 % 0.0 mm
22:36 7.7 °C 6.5 °C 996.2 hPa SW 6.9 km/h 17.2 km/h 92 % 0.0 mm
22:41 7.7 °C 6.4 °C 996.8 hPa SSW 12.2 km/h 12.6 km/h 92 % 0.0 mm
22:46 7.6 °C 6.3 °C 996.8 hPa SW 12.2 km/h 12.6 km/h 92 % 0.0 mm
22:51 7.4 °C 6.4 °C 996.8 hPa SSW 7.9 km/h 12.2 km/h 93 % 0.0 mm
22:56 7.3 °C 6.3 °C 996.8 hPa SSW 13.0 km/h 13.0 km/h 93 % 0.0 mm
23:01 7.3 °C 6.4 °C 996.8 hPa SW 9.3 km/h 13.0 km/h 94 % 0.0 mm
23:06 7.3 °C 6.4 °C 996.8 hPa WSW 10.5 km/h 14.0 km/h 94 % 0.0 mm
23:11 7.3 °C 6.4 °C 996.8 hPa SSW 10.1 km/h 14.0 km/h 94 % 0.0 mm
23:16 7.4 °C 6.7 °C 996.8 hPa WSW 9.3 km/h 13.7 km/h 95 % 0.0 mm
23:21 7.3 °C 6.6 °C 996.8 hPa SW 7.2 km/h 13.7 km/h 95 % 0.0 mm
23:26 7.3 °C 6.6 °C 996.8 hPa WSW 9.3 km/h 12.6 km/h 95 % 0.0 mm
23:31 7.3 °C 6.6 °C 996.8 hPa WSW 10.1 km/h 12.2 km/h 95 % 0.0 mm
23:36 7.3 °C 6.5 °C 996.8 hPa WSW 7.9 km/h 12.6 km/h 95 % 0.0 mm
23:41 7.3 °C 6.5 °C 996.8 hPa SSW 9.7 km/h 14.8 km/h 95 % 0.0 mm
23:46 7.2 °C 6.4 °C 996.8 hPa WSW 10.5 km/h 17.7 km/h 95 % 0.0 mm
23:51 7.2 °C 6.4 °C 996.8 hPa WSW 13.0 km/h 17.7 km/h 95 % 0.0 mm
23:56 7.1 °C 6.3 °C 996.8 hPa WSW 12.6 km/h 16.9 km/h 95 % 0.0 mm
Le Gheer Warneton
Courtoisie de Weather Underground - 2.25 mb

Mise a jour : 16-12-17 15:40:11
Généré par Cumulus 1.9.4 (1099)